Time;durP1;ratioP1;P1;durP2;ratioP2;P2;SDS_P1;SDS_P2;PMS_P1;PMS_P2;Temp;Humidity;BMP_temperature;BMP_pressure;BME280_temperature;BME280_humidity;BME280_pressure;Samples;Min_cycle;Max_cycle;Signal;HPM_P1;HPM_P2
2022/08/25 00:00:48;;;;;;;0.40;0.30;;;21.70;99.90;;;;;;5047970;28;20377;-73
2022/08/25 00:03:14;;;;;;;0.40;0.30;;;21.60;99.90;;;;;;5042270;28;20381;-76
2022/08/25 00:05:40;;;;;;;0.40;0.30;;;21.50;99.90;;;;;;5043093;28;20448;-76
2022/08/25 00:08:07;;;;;;;0.40;0.30;;;21.40;99.90;;;;;;5049549;28;20500;-76
2022/08/25 00:10:34;;;;;;;0.40;0.20;;;21.30;99.90;;;;;;5031860;28;20373;-76
2022/08/25 00:13:01;;;;;;;0.40;0.20;;;21.40;99.90;;;;;;5049210;28;20464;-77
2022/08/25 00:15:27;;;;;;;0.60;0.50;;;21.40;99.90;;;;;;5046623;28;20402;-74
2022/08/25 00:17:53;;;;;;;0.40;0.20;;;21.30;99.90;;;;;;5044602;28;21003;-75
2022/08/25 00:20:20;;;;;;;0.40;0.20;;;21.20;99.90;;;;;;5049708;28;20377;-75
2022/08/25 00:22:46;;;;;;;0.40;0.20;;;21.20;99.90;;;;;;5048773;28;20753;-75
2022/08/25 00:25:11;;;;;;;0.40;0.30;;;21.30;99.90;;;;;;5048295;28;20395;-75
2022/08/25 00:27:37;;;;;;;0.40;0.20;;;21.20;99.90;;;;;;5050115;28;20407;-76
2022/08/25 00:30:04;;;;;;;0.40;0.20;;;21.10;99.90;;;;;;5052931;28;20401;-76
2022/08/25 00:32:30;;;;;;;0.40;0.20;;;21.10;99.90;;;;;;5053003;28;20879;-75
2022/08/25 00:34:56;;;;;;;0.40;0.30;;;21.10;99.90;;;;;;5052914;28;20400;-75
2022/08/25 00:37:22;;;;;;;0.40;0.20;;;21.00;99.90;;;;;;5053133;28;20527;-75
2022/08/25 00:39:48;;;;;;;0.40;0.20;;;21.00;99.90;;;;;;5052778;28;20484;-75
2022/08/25 00:42:14;;;;;;;1.00;0.90;;;21.00;99.90;;;;;;5052942;28;20489;-75
2022/08/25 00:44:40;;;;;;;0.40;0.30;;;20.90;99.90;;;;;;5052602;28;20393;-75
2022/08/25 00:47:06;;;;;;;0.45;0.30;;;20.80;99.90;;;;;;5052958;28;20393;-75
2022/08/25 00:49:57;;;;;;;0.50;0.47;;;20.80;99.90;;;;;;5051266;28;20783;-75
2022/08/25 00:52:30;;;;;;;0.40;0.30;;;20.50;99.90;;;;;;5037366;28;20428;-75
2022/08/25 00:54:58;;;;;;;0.50;0.43;;;20.50;99.90;;;;;;5040377;28;20506;-75
2022/08/25 00:57:28;;;;;;;0.40;0.20;;;20.50;99.90;;;;;;5040688;28;20385;-75
2022/08/25 00:59:54;;;;;;;0.40;0.30;;;20.40;99.90;;;;;;5034977;28;20387;-75
2022/08/25 01:02:20;;;;;;;0.40;0.30;;;20.40;99.90;;;;;;5044934;28;20640;-75
2022/08/25 01:04:46;;;;;;;0.40;0.40;;;20.50;99.90;;;;;;5039517;28;20394;-76
2022/08/25 01:07:13;;;;;;;0.40;0.20;;;20.50;99.90;;;;;;5035685;28;20389;-76
2022/08/25 01:09:39;;;;;;;0.40;0.20;;;20.40;99.90;;;;;;5042395;28;20393;-75
2022/08/25 01:12:05;;;;;;;0.40;0.30;;;20.50;99.90;;;;;;5016646;28;20757;-75
2022/08/25 01:14:31;;;;;;;0.40;0.30;;;20.40;99.90;;;;;;5031605;28;20418;-76
2022/08/25 01:16:58;;;;;;;0.40;0.30;;;20.20;99.90;;;;;;5014128;28;20391;-75
2022/08/25 01:19:25;;;;;;;0.40;0.20;;;20.20;99.90;;;;;;5014156;28;20391;-75
2022/08/25 01:21:52;;;;;;;0.50;0.40;;;20.10;99.90;;;;;;5031620;28;20391;-75
2022/08/25 01:24:28;;;;;;;0.40;0.30;;;20.10;99.90;;;;;;5031858;28;20383;-76
2022/08/25 01:26:53;;;;;;;0.40;0.30;;;20.10;99.90;;;;;;5032075;28;20764;-75
2022/08/25 01:29:24;;;;;;;0.40;0.30;;;20.10;99.90;;;;;;5031910;28;20384;-75
2022/08/25 01:32:12;;;;;;;0.40;0.20;;;20.20;99.90;;;;;;5031746;28;20402;-76
2022/08/25 01:34:40;;;;;;;0.80;0.80;;;20.20;99.90;;;;;;5031641;28;20403;-75
2022/08/25 01:37:06;;;;;;;0.40;0.30;;;20.20;99.90;;;;;;5031913;28;20401;-76
2022/08/25 01:39:35;;;;;;;0.40;0.30;;;20.20;99.90;;;;;;5030622;28;20403;-75
2022/08/25 01:42:10;;;;;;;0.40;0.30;;;20.20;99.90;;;;;;5031694;28;20429;-76
2022/08/25 01:44:38;;;;;;;0.50;0.50;;;20.30;99.90;;;;;;5031468;28;20386;-75
2022/08/25 01:47:05;;;;;;;0.40;0.20;;;20.10;99.90;;;;;;5031643;28;20379;-76
2022/08/25 01:49:31;;;;;;;0.40;0.28;;;20.20;99.90;;;;;;5031787;28;20785;-75
2022/08/25 01:52:09;;;;;;;0.40;0.20;;;20.10;99.90;;;;;;5031362;28;20391;-76
2022/08/25 01:54:34;;;;;;;0.40;0.30;;;20.20;99.90;;;;;;5031147;28;20410;-76
2022/08/25 01:57:00;;;;;;;0.40;0.20;;;20.10;99.90;;;;;;5031600;28;20410;-75
2022/08/25 01:59:26;;;;;;;0.40;0.20;;;20.10;99.90;;;;;;5031268;28;20383;-75
2022/08/25 02:01:52;;;;;;;0.40;0.27;;;20.10;99.90;;;;;;5031388;28;20761;-76
2022/08/25 02:04:18;;;;;;;0.40;0.30;;;20.10;99.90;;;;;;5031221;28;20461;-76
2022/08/25 02:06:44;;;;;;;0.40;0.20;;;20.10;99.90;;;;;;5031396;28;20395;-75
2022/08/25 02:09:13;;;;;;;1.40;1.20;;;20.00;99.90;;;;;;5031123;28;20419;-76
2022/08/25 02:11:41;;;;;;;0.40;0.30;;;20.00;99.90;;;;;;5031341;28;20383;-75
2022/08/25 02:14:08;;;;;;;0.40;0.20;;;20.00;99.90;;;;;;5013178;28;20395;-75
2022/08/25 02:16:35;;;;;;;0.40;0.20;;;20.10;99.90;;;;;;5031084;28;20900;-75
2022/08/25 02:19:03;;;;;;;0.40;0.30;;;20.00;99.90;;;;;;5031130;28;20415;-75
2022/08/25 02:21:28;;;;;;;0.40;0.30;;;19.90;99.90;;;;;;5030640;28;20390;-75
2022/08/25 02:23:55;;;;;;;0.40;0.20;;;19.80;99.90;;;;;;5030796;28;20457;-76
2022/08/25 02:26:21;;;;;;;0.45;0.38;;;19.90;99.90;;;;;;5031079;28;21007;-76
2022/08/25 02:28:48;;;;;;;0.40;0.20;;;19.80;99.90;;;;;;5030952;28;20462;-75
2022/08/25 02:31:15;;;;;;;0.50;0.50;;;19.80;99.90;;;;;;5030762;28;20430;-75
2022/08/25 02:33:41;;;;;;;0.40;0.40;;;19.70;99.90;;;;;;5030673;28;20765;-75
2022/08/25 02:36:07;;;;;;;0.40;0.30;;;19.80;99.90;;;;;;5031066;28;20383;-75
2022/08/25 02:38:33;;;;;;;0.40;0.20;;;19.70;99.90;;;;;;5030708;28;20395;-75
2022/08/25 02:41:00;;;;;;;0.40;0.20;;;19.80;99.90;;;;;;5030663;28;20754;-75
2022/08/25 02:43:27;;;;;;;0.40;0.20;;;19.70;99.90;;;;;;5030363;28;20502;-75
2022/08/25 02:45:58;;;;;;;0.40;0.20;;;19.70;99.90;;;;;;5030719;28;20379;-75
2022/08/25 02:48:23;;;;;;;0.40;0.20;;;19.70;99.90;;;;;;5030586;28;20398;-75
2022/08/25 02:50:51;;;;;;;0.40;0.30;;;19.70;99.90;;;;;;5030402;28;20387;-75
2022/08/25 02:53:18;;;;;;;0.50;0.30;;;19.70;99.90;;;;;;5030212;28;20808;-76
2022/08/25 02:55:44;;;;;;;0.40;0.20;;;19.70;99.90;;;;;;5030467;28;20391;-75
2022/08/25 02:58:10;;;;;;;0.40;0.30;;;19.70;99.90;;;;;;5030454;28;20383;-75
2022/08/25 03:00:36;;;;;;;0.40;0.30;;;19.60;99.90;;;;;;5030682;28;20414;-76
2022/08/25 03:03:01;;;;;;;0.40;0.20;;;19.50;99.90;;;;;;5030305;28;20383;-75
2022/08/25 03:05:27;;;;;;;0.90;0.90;;;19.50;99.90;;;;;;5030654;28;20393;-76
2022/08/25 03:07:52;;;;;;;0.40;0.20;;;19.40;99.90;;;;;;5030224;28;20391;-75
2022/08/25 03:10:18;;;;;;;0.40;0.30;;;19.40;99.90;;;;;;5030320;28;20465;-76
2022/08/25 03:12:44;;;;;;;0.40;0.20;;;19.20;99.90;;;;;;5030062;28;20421;-76
2022/08/25 03:15:13;;;;;;;0.40;0.20;;;19.20;99.90;;;;;;5012411;28;20442;-76
2022/08/25 03:17:39;;;;;;;0.40;0.20;;;19.10;99.90;;;;;;5030157;28;20406;-75
2022/08/25 03:20:06;;;;;;;0.40;0.20;;;19.10;99.90;;;;;;5030196;28;20379;-75
2022/08/25 03:22:31;;;;;;;0.40;0.20;;;19.10;99.90;;;;;;5029384;28;20942;-76
2022/08/25 03:26:52;;;;;;;0.40;0.30;;;19.20;99.90;;;;;;5030273;28;20487;-76
2022/08/25 03:27:43;;;;;;;0.80;0.80;;;19.20;99.90;;;;;;5030395;28;20391;-75
2022/08/25 03:30:09;;;;;;;0.40;0.20;;;19.20;99.90;;;;;;5030052;28;20437;-76
2022/08/25 03:32:35;;;;;;;0.40;0.30;;;19.20;99.90;;;;;;5029896;28;20394;-75
2022/08/25 03:35:00;;;;;;;0.40;0.20;;;19.10;99.90;;;;;;5030317;28;20405;-76
2022/08/25 03:37:26;;;;;;;0.40;0.20;;;19.20;99.90;;;;;;5030311;28;20881;-75
2022/08/25 03:39:52;;;;;;;0.40;0.20;;;19.30;99.90;;;;;;5029980;28;20399;-75
2022/08/25 03:42:18;;;;;;;0.40;0.20;;;19.10;99.90;;;;;;5030165;28;20461;-75
2022/08/25 03:44:44;;;;;;;0.40;0.20;;;19.10;99.90;;;;;;5028627;28;20406;-76
2022/08/25 03:47:09;;;;;;;0.40;0.20;;;19.10;99.90;;;;;;5030265;28;20387;-76
2022/08/25 03:49:35;;;;;;;0.40;0.30;;;19.10;99.90;;;;;;5030002;28;20390;-75
2022/08/25 03:52:01;;;;;;;0.40;0.25;;;18.90;99.90;;;;;;5030154;28;20387;-75
2022/08/25 03:54:26;;;;;;;0.40;0.40;;;18.90;99.90;;;;;;5029657;28;20448;-76
2022/08/25 03:56:52;;;;;;;0.40;0.30;;;18.90;99.90;;;;;;5030138;28;20396;-76
2022/08/25 03:59:18;;;;;;;0.40;0.30;;;18.80;99.90;;;;;;5012337;28;20930;-76
2022/08/25 04:01:45;;;;;;;0.40;0.20;;;18.70;99.90;;;;;;5030156;28;20509;-76
2022/08/25 04:04:11;;;;;;;0.40;0.30;;;18.80;99.90;;;;;;5032923;28;20394;-76
2022/08/25 04:06:38;;;;;;;0.40;0.30;;;18.70;99.90;;;;;;5033789;28;20391;-75
2022/08/25 04:09:05;;;;;;;0.40;0.20;;;18.70;99.90;;;;;;5015945;28;20383;-75
2022/08/25 04:11:30;;;;;;;0.40;0.20;;;18.80;99.90;;;;;;5033778;28;20387;-76
2022/08/25 04:13:57;;;;;;;0.40;0.30;;;18.70;99.90;;;;;;5033404;28;20486;-75
2022/08/25 04:16:25;;;;;;;0.40;0.40;;;18.70;99.90;;;;;;5033791;28;20383;-75
2022/08/25 04:18:52;;;;;;;0.40;0.30;;;18.60;99.90;;;;;;5033568;28;20414;-76
2022/08/25 04:21:19;;;;;;;0.40;0.30;;;18.70;99.90;;;;;;5033145;28;20457;-75
2022/08/25 04:23:47;;;;;;;0.40;0.20;;;18.60;99.90;;;;;;5015501;28;20387;-76
2022/08/25 04:26:26;;;;;;;0.40;0.20;;;18.60;99.90;;;;;;5033589;28;20394;-75
2022/08/25 04:28:52;;;;;;;0.40;0.40;;;18.60;99.90;;;;;;5033264;28;20402;-75
2022/08/25 04:31:20;;;;;;;0.40;0.30;;;18.50;99.90;;;;;;5033540;28;20398;-76
2022/08/25 04:33:47;;;;;;;0.40;0.25;;;18.50;99.90;;;;;;5032977;28;20410;-76
2022/08/25 04:36:13;;;;;;;0.40;0.20;;;18.50;99.90;;;;;;5033384;28;20383;-76
2022/08/25 04:38:41;;;;;;;0.40;0.20;;;18.40;99.90;;;;;;5033064;28;20387;-76
2022/08/25 04:41:07;;;;;;;0.40;0.20;;;18.40;99.90;;;;;;5033218;28;20869;-75
2022/08/25 04:43:34;;;;;;;0.40;0.20;;;18.40;99.90;;;;;;5015102;28;20383;-75
2022/08/25 04:46:14;;;;;;;0.40;0.20;;;18.40;99.90;;;;;;5033067;28;20903;-76
2022/08/25 04:48:40;;;;;;;0.40;0.23;;;18.30;99.90;;;;;;5033291;28;20390;-76
2022/08/25 04:51:12;;;;;;;0.40;0.30;;;18.30;99.90;;;;;;5033008;28;20741;-75
2022/08/25 04:53:39;;;;;;;0.40;0.30;;;18.30;99.90;;;;;;5014974;28;20379;-75
2022/08/25 04:56:07;;;;;;;0.40;0.30;;;18.20;99.90;;;;;;5032956;28;20383;-75
2022/08/25 04:58:32;;;;;;;0.43;0.28;;;18.20;99.90;;;;;;5031557;28;20429;-75
2022/08/25 05:01:20;;;;;;;0.40;0.20;;;18.20;99.90;;;;;;5032785;28;20383;-76
2022/08/25 05:03:47;;;;;;;0.40;0.20;;;18.30;99.90;;;;;;5014954;28;20763;-76
2022/08/25 05:06:13;;;;;;;0.80;0.80;;;18.30;99.90;;;;;;5032808;28;20383;-76
2022/08/25 05:08:39;;;;;;;0.40;0.20;;;18.30;99.90;;;;;;5014980;28;20406;-76
2022/08/25 05:11:11;;;;;;;0.40;0.20;;;18.40;99.90;;;;;;5032469;28;20470;-75
2022/08/25 05:13:38;;;;;;;0.40;0.20;;;18.40;99.90;;;;;;5033092;28;20455;-75
2022/08/25 05:16:04;;;;;;;0.40;0.20;;;18.50;99.90;;;;;;5032650;28;20474;-76
2022/08/25 05:18:31;;;;;;;0.40;0.30;;;18.40;99.90;;;;;;5032528;28;20376;-75
2022/08/25 05:21:05;;;;;;;0.40;0.20;;;18.30;99.90;;;;;;5032462;28;20423;-75
2022/08/25 05:23:31;;;;;;;0.40;0.30;;;18.50;99.90;;;;;;5032059;28;20409;-75
2022/08/25 05:26:02;;;;;;;0.40;0.30;;;18.40;99.90;;;;;;5032529;28;20386;-76
2022/08/25 05:28:27;;;;;;;0.40;0.30;;;18.40;99.90;;;;;;5032470;28;20702;-76
2022/08/25 05:30:58;;;;;;;0.40;0.40;;;18.50;99.90;;;;;;5032493;28;20386;-75
2022/08/25 05:33:23;;;;;;;0.40;0.20;;;18.40;99.90;;;;;;5031908;28;20812;-75
2022/08/25 05:35:49;;;;;;;0.40;0.20;;;18.40;99.90;;;;;;5032212;28;20430;-75
2022/08/25 05:38:14;;;;;;;0.40;0.40;;;18.40;99.90;;;;;;5032182;28;20414;-75
2022/08/25 05:40:40;;;;;;;0.40;0.40;;;18.50;99.90;;;;;;5032107;28;20429;-75
2022/08/25 05:43:05;;;;;;;0.40;0.20;;;18.50;99.90;;;;;;5031965;28;20390;-75
2022/08/25 05:45:31;;;;;;;0.80;0.80;;;18.50;99.90;;;;;;5032128;28;20384;-76
2022/08/25 05:47:57;;;;;;;0.70;0.70;;;18.50;99.90;;;;;;5032094;28;20852;-75
2022/08/25 05:50:22;;;;;;;0.40;0.27;;;18.50;99.90;;;;;;5032011;28;20414;-75
2022/08/25 05:52:48;;;;;;;0.40;0.30;;;18.60;99.90;;;;;;5031633;28;20395;-76
2022/08/25 05:55:14;;;;;;;0.40;0.20;;;18.60;99.90;;;;;;5032149;28;20402;-76
2022/08/25 05:57:40;;;;;;;0.40;0.20;;;18.70;99.90;;;;;;5014330;28;20395;-76
2022/08/25 06:00:07;;;;;;;0.40;0.30;;;18.80;99.90;;;;;;5031782;28;20756;-76
2022/08/25 06:02:47;;;;;;;1.50;0.80;;;18.80;99.90;;;;;;5014066;28;20821;-76
2022/08/25 06:05:16;;;;;;;0.40;0.30;;;18.90;99.90;;;;;;5031593;28;20379;-76
2022/08/25 06:07:42;;;;;;;0.40;0.40;;;19.00;99.90;;;;;;5031681;28;20426;-75
2022/08/25 06:10:12;;;;;;;0.50;0.40;;;19.10;99.90;;;;;;5013790;28;20391;-76
2022/08/25 06:12:39;;;;;;;0.40;0.20;;;19.10;99.90;;;;;;5013611;28;20548;-76
2022/08/25 06:15:06;;;;;;;0.40;0.30;;;19.40;99.90;;;;;;5031733;28;20399;-75
2022/08/25 06:17:33;;;;;;;0.40;0.22;;;19.40;99.90;;;;;;5031431;28;20395;-76
2022/08/25 06:20:04;;;;;;;0.40;0.20;;;19.50;99.90;;;;;;5031431;28;20730;-76
2022/08/25 06:22:29;;;;;;;0.40;0.20;;;19.60;99.90;;;;;;5013223;28;21186;-76
2022/08/25 06:24:55;;;;;;;0.40;0.20;;;19.80;99.90;;;;;;5031175;28;20395;-77
2022/08/25 06:27:20;;;;;;;0.40;0.20;;;19.80;99.90;;;;;;5030972;28;20390;-76
2022/08/25 06:29:46;;;;;;;0.40;0.30;;;19.80;99.90;;;;;;5031290;28;20905;-76
2022/08/25 06:32:11;;;;;;;0.40;0.30;;;19.90;99.90;;;;;;5031199;28;20765;-76
2022/08/25 06:34:37;;;;;;;0.40;0.30;;;19.80;99.90;;;;;;5030827;28;20446;-76
2022/08/25 06:37:16;;;;;;;0.40;0.20;;;20.00;99.90;;;;;;5031231;28;20430;-76
2022/08/25 06:39:42;;;;;;;0.40;0.30;;;20.00;99.90;;;;;;5030809;28;20394;-76
2022/08/25 06:42:08;;;;;;;0.40;0.20;;;20.20;99.90;;;;;;5031019;28;20388;-76
2022/08/25 06:44:34;;;;;;;1.00;0.70;;;20.20;99.90;;;;;;5013045;28;20466;-76
2022/08/25 06:46:59;;;;;;;0.40;0.20;;;20.30;99.90;;;;;;5031279;28;20802;-76
2022/08/25 06:49:27;;;;;;;0.40;0.30;;;20.30;99.90;;;;;;5031019;28;20897;-77
2022/08/25 06:51:53;;;;;;;0.40;0.20;;;20.40;99.90;;;;;;5051243;28;20413;-76
2022/08/25 06:54:18;;;;;;;0.60;0.50;;;20.50;99.90;;;;;;5050708;28;20400;-76
2022/08/25 06:56:44;;;;;;;0.40;0.20;;;20.60;99.90;;;;;;5050543;28;20417;-76
2022/08/25 06:59:10;;;;;;;0.40;0.20;;;20.80;99.90;;;;;;5050828;28;20434;-76
2022/08/25 07:01:36;;;;;;;0.40;0.20;;;20.90;99.90;;;;;;5032989;28;20775;-76
2022/08/25 07:04:03;;;;;;;0.40;0.30;;;21.00;99.90;;;;;;5050381;28;20381;-76
2022/08/25 07:06:31;;;;;;;0.50;0.40;;;21.20;99.90;;;;;;5050893;28;20919;-76
2022/08/25 07:08:58;;;;;;;1.50;1.00;;;21.20;99.90;;;;;;5032583;28;20389;-76
2022/08/25 07:11:24;;;;;;;0.40;0.30;;;21.40;99.90;;;;;;5032834;28;20447;-76
2022/08/25 07:13:50;;;;;;;0.40;0.30;;;21.70;99.90;;;;;;5050340;28;20903;-77
2022/08/25 07:16:17;;;;;;;0.40;0.20;;;21.80;99.90;;;;;;5050644;28;20378;-76
2022/08/25 07:18:44;;;;;;;0.40;0.30;;;21.80;99.90;;;;;;5050563;28;20464;-76
2022/08/25 07:21:11;;;;;;;0.40;0.20;;;21.90;99.90;;;;;;5050153;28;20385;-76
2022/08/25 07:23:38;;;;;;;0.40;0.40;;;21.80;99.90;;;;;;5050358;28;20390;-76
2022/08/25 07:26:19;;;;;;;0.40;0.20;;;21.70;99.90;;;;;;5050763;28;20890;-77
2022/08/25 07:28:45;;;;;;;0.40;0.20;;;21.60;99.90;;;;;;5050854;28;20389;-76
2022/08/25 07:31:10;;;;;;;1.00;0.90;;;21.70;99.90;;;;;;5050247;28;20381;-76
2022/08/25 07:33:36;;;;;;;0.40;0.20;;;21.70;99.90;;;;;;5049832;28;20439;-76
2022/08/25 07:36:02;;;;;;;1.00;0.60;;;21.70;99.90;;;;;;5032434;28;20386;-76
2022/08/25 07:38:28;;;;;;;0.40;0.30;;;21.70;99.90;;;;;;5052325;28;20404;-76
2022/08/25 07:41:01;;;;;;;0.40;0.20;;;21.60;99.90;;;;;;5036523;28;20385;-77
2022/08/25 07:43:27;;;;;;;1.20;1.10;;;21.60;99.90;;;;;;5054247;28;20473;-76
2022/08/25 07:45:52;;;;;;;0.40;0.30;;;21.80;99.90;;;;;;5054326;28;20385;-76
2022/08/25 07:48:19;;;;;;;0.40;0.20;;;21.90;99.90;;;;;;5054318;28;20421;-76
2022/08/25 07:50:46;;;;;;;0.40;0.20;;;21.90;99.90;;;;;;5054248;28;20386;-76
2022/08/25 07:53:15;;;;;;;0.40;0.30;;;22.10;99.90;;;;;;5054165;28;20384;-76
2022/08/25 07:55:40;;;;;;;0.40;0.38;;;22.10;99.90;;;;;;5054270;28;20408;-76
2022/08/25 07:58:08;;;;;;;0.40;0.20;;;22.10;99.90;;;;;;5054129;28;20401;-76
2022/08/25 08:00:35;;;;;;;0.80;0.80;;;22.20;99.90;;;;;;5054081;28;20882;-75
2022/08/25 08:03:05;;;;;;;0.40;0.30;;;22.20;99.90;;;;;;5053668;28;20389;-76
2022/08/25 08:05:32;;;;;;;1.30;0.90;;;22.30;99.90;;;;;;5054057;28;20389;-76
2022/08/25 08:07:58;;;;;;;0.40;0.20;;;22.40;99.90;;;;;;5053804;28;20390;-76
2022/08/25 08:10:24;;;;;;;0.80;0.80;;;22.40;99.90;;;;;;5053973;28;20456;-75
2022/08/25 08:12:50;;;;;;;0.40;0.30;;;22.40;99.90;;;;;;5035738;28;20424;-76
2022/08/25 08:15:16;;;;;;;0.40;0.40;;;22.60;99.90;;;;;;5053740;28;20401;-75
2022/08/25 08:17:42;;;;;;;0.40;0.30;;;22.70;99.90;;;;;;5035885;28;20395;-76
2022/08/25 08:20:09;;;;;;;0.40;0.30;;;22.60;99.90;;;;;;5054147;28;20393;-76
2022/08/25 08:22:40;;;;;;;0.40;0.22;;;22.70;99.90;;;;;;5053247;28;20474;-76
2022/08/25 08:25:08;;;;;;;0.50;0.50;;;22.80;99.90;;;;;;5053566;28;20397;-76
2022/08/25 08:27:34;;;;;;;0.40;0.20;;;22.90;99.90;;;;;;5053612;28;20382;-76
2022/08/25 08:30:00;;;;;;;0.50;0.30;;;23.00;99.90;;;;;;5053520;28;20810;-75
2022/08/25 08:32:26;;;;;;;0.40;0.20;;;23.00;99.90;;;;;;5035421;28;20744;-75
2022/08/25 08:34:52;;;;;;;0.80;0.70;;;23.00;99.90;;;;;;5053099;28;20404;-75
2022/08/25 08:37:18;;;;;;;0.40;0.30;;;23.10;99.90;;;;;;5053299;28;20377;-75
2022/08/25 08:39:44;;;;;;;0.40;0.30;;;23.10;99.90;;;;;;5053124;28;20814;-75
2022/08/25 08:42:18;;;;;;;0.40;0.20;;;23.10;99.90;;;;;;5053164;28;20389;-75
2022/08/25 08:44:43;;;;;;;0.43;0.40;;;23.20;99.90;;;;;;5036221;28;20408;-76
2022/08/25 08:47:21;;;;;;;0.40;0.30;;;23.20;99.90;;;;;;5054112;28;20564;-76
2022/08/25 08:49:54;;;;;;;0.63;0.35;;;23.30;99.90;;;;;;5052496;28;20546;-75
2022/08/25 08:52:32;;;;;;;0.40;0.30;;;23.40;99.90;;;;;;5052943;28;20393;-75
2022/08/25 08:55:01;;;;;;;0.40;0.30;;;23.50;99.90;;;;;;5035049;28;20492;-75
2022/08/25 08:57:28;;;;;;;0.40;0.20;;;23.70;99.90;;;;;;5052892;28;20393;-75
2022/08/25 08:59:58;;;;;;;0.47;0.30;;;23.80;99.90;;;;;;5052836;28;20385;-76
2022/08/25 09:02:33;;;;;;;0.40;0.20;;;23.90;99.90;;;;;;5052656;28;20868;-73
2022/08/25 09:05:02;;;;;;;0.40;0.30;;;24.00;99.90;;;;;;5052997;28;20915;-75
2022/08/25 09:07:38;;;;;;;0.40;0.30;;;23.90;99.90;;;;;;5052830;28;20400;-74
2022/08/25 09:10:04;;;;;;;0.57;0.55;;;24.00;99.90;;;;;;5052673;28;20443;-75
2022/08/25 09:12:41;;;;;;;0.40;0.20;;;24.00;99.90;;;;;;5034594;28;20445;-75
2022/08/25 09:15:15;;;;;;;0.40;0.30;;;24.20;99.90;;;;;;5052581;28;20404;-75
2022/08/25 09:18:03;;;;;;;0.40;0.20;;;24.30;99.90;;;;;;5052509;28;20390;-75
2022/08/25 09:20:40;;;;;;;0.40;0.20;;;24.30;99.90;;;;;;5052525;28;20370;-75
2022/08/25 09:23:38;;;;;;;0.40;0.20;;;24.30;99.90;;;;;;5051788;28;20381;-75
2022/08/25 09:26:37;;;;;;;0.40;0.20;;;24.30;99.90;;;;;;5052399;28;20435;-75
2022/08/25 09:29:11;;;;;;;0.40;0.30;;;24.40;99.90;;;;;;5052380;28;20384;-74
2022/08/25 09:31:39;;;;;;;0.40;0.20;;;24.50;99.90;;;;;;5052269;28;20374;-75
2022/08/25 09:34:11;;;;;;;0.40;0.20;;;24.60;99.90;;;;;;5051851;28;20408;-75
2022/08/25 09:36:37;;;;;;;0.40;0.20;;;24.70;99.90;;;;;;5052160;28;20423;-75
2022/08/25 09:39:04;;;;;;;0.40;0.20;;;24.80;99.90;;;;;;5051855;28;20397;-75
2022/08/25 09:41:51;;;;;;;0.50;0.40;;;24.70;99.90;;;;;;5052126;28;20388;-75
2022/08/25 09:44:42;;;;;;;0.40;0.30;;;25.00;99.90;;;;;;5051918;28;20952;-75
2022/08/25 09:47:17;;;;;;;0.40;0.20;;;25.00;99.40;;;;;;5023446;28;20397;-74
2022/08/25 09:50:02;;;;;;;0.40;0.30;;;24.90;99.00;;;;;;5051842;28;20391;-75
2022/08/25 09:52:27;;;;;;;0.40;0.30;;;24.80;99.90;;;;;;5051533;28;20819;-75
2022/08/25 09:55:06;;;;;;;0.40;0.20;;;25.20;99.50;;;;;;5051721;28;20433;-75
2022/08/25 09:57:43;;;;;;;2.00;0.73;;;25.00;98.50;;;;;;5051785;28;20388;-75
2022/08/25 10:00:32;;;;;;;8.05;0.68;;;25.00;98.90;;;;;;5050983;28;20381;-75
2022/08/25 10:03:17;;;;;;;0.40;0.20;;;25.30;97.70;;;;;;5051295;28;20475;-74
2022/08/25 10:06:00;;;;;;;0.40;0.30;;;25.30;97.70;;;;;;5051710;28;20887;-75
2022/08/25 10:08:37;;;;;;;0.40;0.20;;;25.40;96.80;;;;;;5051574;28;21066;-75
2022/08/25 10:11:11;;;;;;;0.40;0.30;;;25.60;96.10;;;;;;5051564;28;20385;-74
2022/08/25 10:13:42;;;;;;;0.40;0.40;;;25.60;96.10;;;;;;5051211;28;20515;-74
2022/08/25 10:16:22;;;;;;;0.40;0.20;;;25.70;95.40;;;;;;5050272;28;20392;-75
2022/08/25 10:19:05;;;;;;;0.70;0.70;;;25.80;94.70;;;;;;5037672;28;20421;-75
2022/08/25 10:21:31;;;;;;;0.40;0.20;;;25.80;95.00;;;;;;5037173;28;20439;-75
2022/08/25 10:24:00;;;;;;;0.40;0.30;;;25.80;94.70;;;;;;5040060;28;20392;-75
2022/08/25 10:26:34;;;;;;;0.40;0.20;;;25.90;94.90;;;;;;5037827;28;20395;-75
2022/08/25 10:29:08;;;;;;;0.40;0.25;;;26.10;92.80;;;;;;5027843;28;20794;-75
2022/08/25 10:31:58;;;;;;;0.40;0.30;;;26.10;91.00;;;;;;5051031;28;20399;-75
2022/08/25 10:34:52;;;;;;;0.40;0.20;;;26.10;91.30;;;;;;5050358;28;20914;-74
2022/08/25 10:37:25;;;;;;;0.60;0.40;;;26.30;91.10;;;;;;5033128;28;20416;-75
2022/08/25 10:40:28;;;;;;;0.40;0.20;;;26.30;91.00;;;;;;5050927;28;20941;-74
2022/08/25 10:43:17;;;;;;;0.40;0.30;;;26.30;91.00;;;;;;5050731;28;20385;-74
2022/08/25 10:45:59;;;;;;;0.40;0.30;;;26.40;88.70;;;;;;5051335;28;20390;-73
2022/08/25 10:48:39;;;;;;;0.40;0.30;;;26.60;89.60;;;;;;5045744;28;20419;-73
2022/08/25 10:51:13;;;;;;;0.40;0.20;;;26.80;87.80;;;;;;5040094;28;20810;-74
2022/08/25 10:54:06;;;;;;;0.40;0.20;;;26.90;87.70;;;;;;5041493;28;20419;-74
2022/08/25 10:56:41;;;;;;;0.40;0.20;;;26.90;87.70;;;;;;5053915;28;20797;-75
2022/08/25 10:59:28;;;;;;;0.40;0.25;;;27.00;88.30;;;;;;5040467;28;20474;-76
2022/08/25 11:02:10;;;;;;;0.47;0.28;;;26.90;86.40;;;;;;5041215;28;20427;-76
2022/08/25 11:04:56;;;;;;;0.40;0.30;;;27.10;82.40;;;;;;5039221;28;20885;-76
2022/08/25 11:07:33;;;;;;;0.40;0.20;;;27.30;84.80;;;;;;5022403;28;20395;-76
2022/08/25 11:10:09;;;;;;;0.40;0.20;;;27.60;83.10;;;;;;5022143;28;20387;-76
2022/08/25 11:12:39;;;;;;;0.50;0.40;;;27.80;81.40;;;;;;5039099;28;20390;-76
2022/08/25 11:15:13;;;;;;;0.40;0.20;;;27.70;81.10;;;;;;5019659;28;20895;-77
2022/08/25 11:17:51;;;;;;;0.40;0.30;;;27.80;80.30;;;;;;5022597;28;20397;-76
2022/08/25 11:20:22;;;;;;;0.40;0.20;;;27.90;80.80;;;;;;5021733;28;20392;-77
2022/08/25 11:22:56;;;;;;;2.10;0.70;;;28.20;80.20;;;;;;5020218;28;20383;-76
2022/08/25 11:25:31;;;;;;;0.40;0.20;;;28.30;77.50;;;;;;5012896;28;20391;-78
2022/08/25 11:28:05;;;;;;;0.40;0.20;;;28.30;77.00;;;;;;5030538;28;20473;-76
2022/08/25 11:30:31;;;;;;;0.40;0.20;;;28.30;76.30;;;;;;5012925;28;20757;-75
2022/08/25 11:32:57;;;;;;;0.40;0.20;;;28.50;77.10;;;;;;5030096;28;20784;-75
2022/08/25 11:35:34;;;;;;;0.40;0.20;;;28.80;74.90;;;;;;5030206;28;20912;-75
2022/08/25 11:38:27;;;;;;;0.40;0.20;;;29.40;73.40;;;;;;5012368;28;20403;-75
2022/08/25 11:40:54;;;;;;;0.40;0.20;;;30.20;69.70;;;;;;5030233;28;20391;-75
2022/08/25 11:43:58;;;;;;;0.40;0.30;;;30.70;67.60;;;;;;5030069;28;20390;-75
2022/08/25 11:46:45;;;;;;;0.40;0.20;;;31.50;67.20;;;;;;5014098;28;20871;-75
2022/08/25 11:49:32;;;;;;;0.40;0.20;;;31.30;63.30;;;;;;5039011;28;20839;-75
2022/08/25 11:51:58;;;;;;;0.40;0.20;;;31.30;66.30;;;;;;5036437;28;20410;-76
2022/08/25 11:54:37;;;;;;;0.40;0.20;;;31.50;65.50;;;;;;5045737;28;20463;-75
2022/08/25 11:57:16;;;;;;;0.40;0.20;;;31.80;64.30;;;;;;5020789;28;20397;-76
2022/08/25 12:00:20;;;;;;;0.40;0.20;;;30.90;63.10;;;;;;5038433;28;20757;-75
2022/08/25 12:02:49;;;;;;;0.40;0.20;;;31.20;63.10;;;;;;5003274;28;20462;-75
2022/08/25 12:05:23;;;;;;;0.40;0.20;;;31.00;62.90;;;;;;5040186;28;20785;-72
2022/08/25 12:11:06;;;;;;;0.40;0.28;;;32.00;61.40;;;;;;5037227;28;20443;-74
2022/08/25 12:13:50;;;;;;;0.40;0.20;;;32.60;61.30;;;;;;5022719;28;20744;-74
2022/08/25 12:16:37;;;;;;;0.40;0.20;;;31.80;61.30;;;;;;5036684;28;20476;-75
2022/08/25 12:19:22;;;;;;;0.40;0.20;;;32.10;62.90;;;;;;5033939;28;20382;-74
2022/08/25 12:21:49;;;;;;;0.60;0.60;;;31.70;58.60;;;;;;5038408;28;20429;-74
2022/08/25 12:24:18;;;;;;;0.40;0.20;;;31.90;59.30;;;;;;5036517;28;20486;-75
2022/08/25 12:26:46;;;;;;;0.80;0.52;;;31.60;60.70;;;;;;5024977;28;20893;-74
2022/08/25 12:29:30;;;;;;;0.40;0.30;;;31.80;61.40;;;;;;5043234;28;20395;-74
2022/08/25 12:32:01;;;;;;;0.40;0.20;;;31.40;61.70;;;;;;5050452;28;20475;-74
2022/08/25 12:34:30;;;;;;;0.40;0.20;;;31.00;64.00;;;;;;5041819;28;21109;-75
2022/08/25 12:37:12;;;;;;;0.40;0.20;;;31.40;63.60;;;;;;5043995;28;20399;-75
2022/08/25 12:39:49;;;;;;;0.40;0.28;;;31.40;60.50;;;;;;5024306;28;20478;-74
2022/08/25 12:42:35;;;;;;;0.40;0.20;;;32.00;61.60;;;;;;5041661;28;20465;-73
2022/08/25 12:45:13;;;;;;;0.40;0.20;;;32.10;61.40;;;;;;5024834;28;20908;-73
2022/08/25 12:47:41;;;;;;;0.40;0.20;;;31.60;60.30;;;;;;5042288;28;20387;-74
2022/08/25 12:50:34;;;;;;;0.40;0.20;;;31.80;60.00;;;;;;5039441;28;20397;-74
2022/08/25 12:53:26;;;;;;;0.40;0.30;;;32.10;59.10;;;;;;5044349;28;20480;-75
2022/08/25 12:56:03;;;;;;;0.40;0.20;;;32.20;60.30;;;;;;5040767;28;20397;-75
2022/08/25 12:58:54;;;;;;;0.40;0.20;;;31.50;61.00;;;;;;5019791;28;20401;-76
2022/08/25 13:01:35;;;;;;;0.40;0.20;;;32.10;60.70;;;;;;5041462;28;20777;-74
2022/08/25 13:04:30;;;;;;;0.40;0.20;;;32.60;59.40;;;;;;5049027;28;20816;-76
2022/08/25 13:07:20;;;;;;;0.40;0.20;;;32.60;60.20;;;;;;5023277;28;20393;-75
2022/08/25 13:10:04;;;;;;;0.40;0.20;;;32.10;58.30;;;;;;5044679;28;20413;-75